createdAt,value
2023-02-09T00:00:02.584Z,12.15
2023-02-09T00:02:43.267Z,12.13
2023-02-09T00:05:13.112Z,11.45
2023-02-09T00:07:41.526Z,11.68
2023-02-09T00:10:10.550Z,10.63
2023-02-09T00:12:56.052Z,12.43
2023-02-09T00:15:24.629Z,9.65
2023-02-09T00:17:54.590Z,12.55
2023-02-09T00:20:23.054Z,10.90
2023-02-09T00:22:51.402Z,11.07
2023-02-09T00:25:20.288Z,9.88
2023-02-09T00:27:48.695Z,10.90
2023-02-09T00:30:16.905Z,11.60
2023-02-09T00:32:47.072Z,12.32
2023-02-09T00:35:17.531Z,9.95
2023-02-09T00:37:46.359Z,10.77
2023-02-09T00:40:14.958Z,11.40
2023-02-09T00:42:43.122Z,11.80
2023-02-09T00:45:11.867Z,12.02
2023-02-09T00:47:40.136Z,10.00
2023-02-09T00:50:09.267Z,11.85
2023-02-09T00:52:38.830Z,10.93
2023-02-09T00:55:07.506Z,10.75
2023-02-09T00:57:36.232Z,13.20
2023-02-09T01:00:06.534Z,10.02
2023-02-09T01:02:34.873Z,10.88
2023-02-09T01:05:03.473Z,12.50
2023-02-09T01:07:32.009Z,12.20
2023-02-09T01:10:03.109Z,11.95
2023-02-09T01:12:32.086Z,11.65
2023-02-09T01:15:02.259Z,12.45
2023-02-09T01:17:30.760Z,12.95
2023-02-09T01:19:59.236Z,11.43
2023-02-09T01:22:27.546Z,10.35
2023-02-09T01:24:55.906Z,11.57
2023-02-09T01:27:25.618Z,11.50
2023-02-09T01:29:53.938Z,12.68
2023-02-09T01:32:22.081Z,11.50
2023-02-09T01:34:52.031Z,11.23
2023-02-09T01:37:20.546Z,11.27
2023-02-09T01:39:49.383Z,10.98
2023-02-09T01:42:20.617Z,10.93
2023-02-09T01:45:20.276Z,11.55
2023-02-09T01:47:51.679Z,13.32
2023-02-09T01:50:21.090Z,11.98
2023-02-09T01:52:50.892Z,10.93
2023-02-09T01:55:23.862Z,13.07
2023-02-09T01:57:56.000Z,10.65
2023-02-09T02:00:26.699Z,11.25
2023-02-09T02:02:58.672Z,13.50
2023-02-09T02:05:28.258Z,12.20
2023-02-09T02:08:02.525Z,12.13
2023-02-09T02:10:31.142Z,11.40
2023-02-09T02:12:59.540Z,10.93
2023-02-09T02:15:34.388Z,12.38
2023-02-09T02:18:24.600Z,9.88
2023-02-09T02:21:16.177Z,11.27
2023-02-09T02:23:53.864Z,12.20
2023-02-09T02:26:40.052Z,10.30
2023-02-09T02:29:26.091Z,11.07
2023-02-09T02:32:13.836Z,12.02
2023-02-09T02:34:48.473Z,11.48
2023-02-09T02:37:29.418Z,11.75
2023-02-09T02:40:11.581Z,11.18
2023-02-09T02:42:53.008Z,12.88
2023-02-09T02:45:34.081Z,13.07
2023-02-09T02:48:13.206Z,13.25
2023-02-09T02:50:47.820Z,12.15
2023-02-09T02:53:19.348Z,13.48
2023-02-09T02:55:50.328Z,13.07
2023-02-09T03:00:52.793Z,12.50
2023-02-09T03:03:24.791Z,13.68
2023-02-09T03:05:54.262Z,11.82
2023-02-09T03:08:22.599Z,12.68
2023-02-09T03:10:51.012Z,12.82
2023-02-09T03:13:38.587Z,12.50
2023-02-09T03:16:29.273Z,12.07
2023-02-09T03:19:09.465Z,13.87
2023-02-09T03:21:47.808Z,12.45
2023-02-09T03:24:25.655Z,13.02
2023-02-09T03:26:58.913Z,12.65
2023-02-09T03:29:28.998Z,12.52
2023-02-09T03:31:58.244Z,14.02
2023-02-09T03:34:28.682Z,14.13
2023-02-09T03:36:58.682Z,13.87
2023-02-09T03:39:27.048Z,13.20
2023-02-09T03:41:55.443Z,13.63
2023-02-09T03:44:30.222Z,12.35
2023-02-09T03:47:00.516Z,12.68
2023-02-09T03:49:33.634Z,13.25
2023-02-09T03:52:02.088Z,12.20
2023-02-09T03:54:30.759Z,12.80
2023-02-09T03:57:01.153Z,13.40
2023-02-09T03:59:29.633Z,13.02
2023-02-09T04:01:59.709Z,12.93
2023-02-09T04:04:29.336Z,12.88
2023-02-09T04:06:58.150Z,12.35
2023-02-09T04:09:27.135Z,12.98
2023-02-09T04:11:56.069Z,13.15
2023-02-09T04:14:24.730Z,12.35
2023-02-09T04:16:53.090Z,13.05
2023-02-09T04:19:21.773Z,12.32
2023-02-09T04:21:52.804Z,11.75
2023-02-09T04:24:28.893Z,12.63
2023-02-09T04:26:57.266Z,12.70
2023-02-09T04:29:25.939Z,12.13
2023-02-09T04:31:54.211Z,12.57
2023-02-09T04:34:24.265Z,12.57
2023-02-09T04:36:53.992Z,13.25
2023-02-09T04:39:22.098Z,14.48
2023-02-09T04:41:50.430Z,12.60
2023-02-09T04:44:18.665Z,13.02
2023-02-09T04:46:47.159Z,13.45
2023-02-09T04:49:15.861Z,12.73
2023-02-09T04:51:44.641Z,13.45
2023-02-09T04:54:14.400Z,13.93
2023-02-09T04:56:42.762Z,13.63
2023-02-09T04:59:29.013Z,16.85
2023-02-09T05:01:57.336Z,13.88
2023-02-09T05:04:26.172Z,14.30
2023-02-09T05:06:54.468Z,14.10
2023-02-09T05:09:24.798Z,14.10
2023-02-09T05:11:52.982Z,14.52
2023-02-09T05:14:22.751Z,14.52
2023-02-09T05:16:51.202Z,12.93
2023-02-09T05:19:19.607Z,14.23
2023-02-09T05:21:48.135Z,13.70
2023-02-09T05:24:16.468Z,14.23
2023-02-09T05:26:46.239Z,11.80
2023-02-09T05:29:14.781Z,12.13
2023-02-09T05:31:43.260Z,13.50
2023-02-09T05:34:12.088Z,13.07
2023-02-09T05:36:40.443Z,12.80
2023-02-09T05:39:08.805Z,13.30
2023-02-09T05:41:54.440Z,11.82
2023-02-09T05:44:24.248Z,10.85
2023-02-09T05:46:52.592Z,12.77
2023-02-09T05:49:21.287Z,11.90
2023-02-09T05:51:49.698Z,13.68
2023-02-09T05:54:18.109Z,12.70
2023-02-09T05:56:46.547Z,13.20
2023-02-09T05:59:15.101Z,13.20
2023-02-09T06:01:44.929Z,12.68
2023-02-09T06:04:13.475Z,14.35
2023-02-09T06:06:41.859Z,13.68
2023-02-09T06:09:10.542Z,13.50
2023-02-09T06:11:38.886Z,14.30
2023-02-09T06:14:07.191Z,12.77
2023-02-09T06:16:35.396Z,12.13
2023-02-09T06:19:05.517Z,13.80
2023-02-09T06:21:33.772Z,12.65
2023-02-09T06:24:02.072Z,14.30
2023-02-09T06:26:30.380Z,12.95
2023-02-09T06:28:58.713Z,12.68
2023-02-09T06:31:27.236Z,15.27
2023-02-09T06:33:55.808Z,12.88
2023-02-09T06:36:25.450Z,14.43
2023-02-09T06:38:53.851Z,14.52
2023-02-09T06:41:22.282Z,12.63
2023-02-09T06:43:50.404Z,12.45
2023-02-09T06:46:18.795Z,13.75
2023-02-09T06:48:47.256Z,16.55
2023-02-09T06:51:17.880Z,18.38
2023-02-09T06:53:48.134Z,17.93
2023-02-09T06:56:16.646Z,16.30
2023-02-09T06:58:44.811Z,13.75
2023-02-09T07:01:16.027Z,14.48
2023-02-09T07:03:45.216Z,12.60
2023-02-09T07:06:16.387Z,13.07
2023-02-09T07:08:45.646Z,14.05
2023-02-09T07:11:17.488Z,14.63
2023-02-09T07:13:46.940Z,15.23
2023-02-09T07:16:15.646Z,13.25
2023-02-09T07:18:44.466Z,14.13
2023-02-09T07:21:15.782Z,15.95
2023-02-09T07:26:16.879Z,15.90
2023-02-09T07:28:46.008Z,16.70
2023-02-09T07:31:16.129Z,14.77
2023-02-09T07:33:44.723Z,14.00
2023-02-09T07:36:15.569Z,15.63
2023-02-09T07:38:45.532Z,14.80
2023-02-09T07:41:18.291Z,16.83
2023-02-09T07:43:47.227Z,18.10
2023-02-09T07:46:17.842Z,20.85
2023-02-09T07:48:47.152Z,21.75
2023-02-09T07:51:16.273Z,17.50
2023-02-09T07:53:45.088Z,19.35
2023-02-09T07:56:13.554Z,19.25
2023-02-09T07:58:44.117Z,17.95
2023-02-09T08:01:13.999Z,19.10
2023-02-09T08:03:45.079Z,19.45
2023-02-09T08:06:21.799Z,19.55
2023-02-09T08:08:52.328Z,19.10
2023-02-09T08:11:24.484Z,22.30
2023-02-09T08:13:55.917Z,20.70
2023-02-09T08:16:29.935Z,19.55
2023-02-09T08:19:01.397Z,20.98
2023-02-09T08:24:00.479Z,18.58
2023-02-09T08:26:29.200Z,22.38
2023-02-09T08:28:59.399Z,21.67
2023-02-09T08:31:27.842Z,23.92
2023-02-09T08:33:56.309Z,22.60
2023-02-09T08:36:25.121Z,20.02
2023-02-09T08:38:53.470Z,18.17
2023-02-09T08:41:24.036Z,19.23
2023-02-09T08:43:53.042Z,20.95
2023-02-09T08:46:22.966Z,19.23
2023-02-09T08:48:51.531Z,19.00
2023-02-09T08:51:20.259Z,20.98
2023-02-09T08:53:52.691Z,17.95
2023-02-09T08:56:22.504Z,18.65
2023-02-09T08:58:51.428Z,19.83
2023-02-09T09:01:19.902Z,21.38
2023-02-09T09:03:49.905Z,19.73
2023-02-09T09:06:18.612Z,18.65
2023-02-09T09:08:46.972Z,20.13
2023-02-09T09:11:16.169Z,19.60
2023-02-09T09:13:44.615Z,21.33
2023-02-09T09:16:17.380Z,21.17
2023-02-09T09:18:46.222Z,20.27
2023-02-09T09:21:17.631Z,20.90
2023-02-09T09:23:47.080Z,19.48
2023-02-09T09:26:16.591Z,20.65
2023-02-09T09:28:45.530Z,19.17
2023-02-09T09:31:15.776Z,19.77
2023-02-09T09:33:44.472Z,19.25
2023-02-09T09:36:14.707Z,18.55
2023-02-09T09:38:45.655Z,20.73
2023-02-09T09:41:24.741Z,19.43
2023-02-09T09:43:54.907Z,18.83
2023-02-09T09:46:32.533Z,20.42
2023-02-09T09:49:01.961Z,20.00
2023-02-09T09:51:38.205Z,19.83
2023-02-09T09:54:14.098Z,22.27
2023-02-09T09:56:42.676Z,23.42
2023-02-09T09:59:17.998Z,22.02
2023-02-09T10:01:50.547Z,20.00
2023-02-09T10:04:20.977Z,23.52
2023-02-09T10:06:57.688Z,25.67
2023-02-09T10:09:36.999Z,20.05
2023-02-09T10:12:16.762Z,29.90
2023-02-09T10:14:45.085Z,39.50
2023-02-09T10:17:13.423Z,38.47
2023-02-09T10:19:42.838Z,32.67
2023-02-09T10:22:14.065Z,31.35
2023-02-09T10:24:43.718Z,32.50
2023-02-09T10:27:16.477Z,25.60
2023-02-09T10:29:44.862Z,27.63
2023-02-09T10:32:18.016Z,23.17
2023-02-09T10:34:49.119Z,20.02
2023-02-09T10:37:21.810Z,19.85
2023-02-09T10:40:01.553Z,23.00
2023-02-09T10:42:32.710Z,27.25
2023-02-09T10:45:08.273Z,27.23
2023-02-09T10:47:36.604Z,23.88
2023-02-09T10:50:25.900Z,22.48
2023-02-09T10:53:00.248Z,21.23
2023-02-09T10:55:36.483Z,24.52
2023-02-09T10:58:16.246Z,23.15
2023-02-09T11:00:51.817Z,21.27
2023-02-09T11:03:22.763Z,19.73
2023-02-09T11:05:59.773Z,18.90
2023-02-09T11:08:39.703Z,19.02
2023-02-09T11:11:14.898Z,21.17
2023-02-09T11:13:43.617Z,21.90
2023-02-09T11:16:44.611Z,20.98
2023-02-09T11:19:32.165Z,20.35
2023-02-09T11:22:09.457Z,21.10
2023-02-09T11:24:59.904Z,20.60
2023-02-09T11:27:44.471Z,24.23
2023-02-09T11:30:33.224Z,23.38
2023-02-09T11:33:11.742Z,23.50
2023-02-09T11:35:51.967Z,24.15
2023-02-09T11:38:29.315Z,24.95
2023-02-09T11:40:59.731Z,24.08
2023-02-09T11:43:36.984Z,24.02
2023-02-09T11:46:13.226Z,22.55
2023-02-09T11:48:48.149Z,21.50
2023-02-09T11:51:20.723Z,20.40
2023-02-09T11:53:55.980Z,20.58
2023-02-09T11:56:26.552Z,20.25
2023-02-09T11:59:02.088Z,20.95
2023-02-09T12:01:42.337Z,22.17
2023-02-09T12:04:21.018Z,21.35
2023-02-09T12:06:52.347Z,21.13
2023-02-09T12:09:35.746Z,22.73
2023-02-09T12:12:15.193Z,27.15
2023-02-09T12:14:58.606Z,25.98
2023-02-09T12:17:36.204Z,27.40
2023-02-09T12:20:05.755Z,24.10
2023-02-09T12:22:58.833Z,25.70
2023-02-09T12:26:01.114Z,23.85
2023-02-09T12:28:42.499Z,27.73
2023-02-09T12:34:22.667Z,22.55
2023-02-09T12:37:20.070Z,22.88
2023-02-09T12:40:19.423Z,23.13
2023-02-09T12:43:06.940Z,22.48
2023-02-09T12:45:37.974Z,24.30
2023-02-09T12:48:17.747Z,23.65
2023-02-09T12:50:50.572Z,22.52
2023-02-09T12:53:50.230Z,25.13
2023-02-09T12:56:28.625Z,25.67
2023-02-09T12:59:17.073Z,20.08
2023-02-09T13:02:11.210Z,22.15
2023-02-09T13:04:50.156Z,23.30
2023-02-09T13:07:28.291Z,19.52
2023-02-09T13:10:00.125Z,18.63
2023-02-09T13:12:37.318Z,16.08
2023-02-09T13:15:14.117Z,15.07
2023-02-09T13:17:50.520Z,15.15
2023-02-09T13:20:58.842Z,14.18
2023-02-09T13:23:44.620Z,15.82
2023-02-09T13:26:21.665Z,15.05
2023-02-09T13:28:50.442Z,14.43
2023-02-09T13:31:27.661Z,13.73
2023-02-09T13:34:01.891Z,13.02
2023-02-09T13:36:40.944Z,14.18
2023-02-09T13:39:10.183Z,12.45
2023-02-09T13:41:40.969Z,13.77
2023-02-09T13:44:23.512Z,13.23
2023-02-09T13:46:54.732Z,13.45
2023-02-09T13:49:24.729Z,13.38
2023-02-09T13:52:13.722Z,13.15
2023-02-09T13:54:43.498Z,13.05
2023-02-09T13:57:19.311Z,12.32
2023-02-09T13:59:48.910Z,12.77
2023-02-09T14:02:21.295Z,9.77
2023-02-09T14:04:55.958Z,9.23
2023-02-09T14:07:32.155Z,9.27
2023-02-09T14:10:04.256Z,9.18
2023-02-09T14:12:55.770Z,9.98
2023-02-09T14:15:46.991Z,11.43
2023-02-09T14:18:31.044Z,9.38
2023-02-09T14:21:01.399Z,9.18
2023-02-09T14:23:35.440Z,8.85
2023-02-09T14:26:06.495Z,9.15
2023-02-09T14:31:07.374Z,10.02
2023-02-09T14:33:38.909Z,9.18
2023-02-09T14:36:23.483Z,8.40
2023-02-09T14:39:04.606Z,9.18
2023-02-09T14:41:34.690Z,8.18
2023-02-09T14:44:04.537Z,9.57
2023-02-09T14:46:49.342Z,11.23
2023-02-09T14:49:19.404Z,11.05
2023-02-09T14:51:49.440Z,11.93
2023-02-09T14:54:26.565Z,11.13
2023-02-09T14:56:57.992Z,9.55
2023-02-09T14:59:27.026Z,10.13
2023-02-09T15:01:56.889Z,10.57
2023-02-09T15:04:25.729Z,10.70
2023-02-09T15:07:02.970Z,13.15
2023-02-09T15:09:38.114Z,12.98
2023-02-09T15:12:08.505Z,12.55
2023-02-09T15:14:44.162Z,12.18
2023-02-09T15:17:17.711Z,11.40
2023-02-09T15:19:46.741Z,10.93
2023-02-09T15:22:16.760Z,11.05
2023-02-09T15:24:49.548Z,11.07
2023-02-09T15:27:26.679Z,11.93
2023-02-09T15:29:59.330Z,10.80
2023-02-09T15:32:29.110Z,12.30
2023-02-09T15:34:57.546Z,12.07
2023-02-09T15:37:28.546Z,11.85
2023-02-09T15:40:03.085Z,13.00
2023-02-09T15:42:57.380Z,11.93
2023-02-09T15:45:46.265Z,10.75
2023-02-09T15:48:16.165Z,11.05
2023-02-09T15:50:46.933Z,11.82
2023-02-09T15:53:19.398Z,12.23
2023-02-09T15:55:49.485Z,12.60
2023-02-09T15:58:20.840Z,12.85
2023-02-09T16:00:49.222Z,13.80
2023-02-09T16:03:20.194Z,14.18
2023-02-09T16:05:50.856Z,15.38
2023-02-09T16:08:23.302Z,21.33
2023-02-09T16:10:53.906Z,20.05
2023-02-09T16:13:22.276Z,18.20
2023-02-09T16:15:53.165Z,16.33
2023-02-09T16:18:21.684Z,17.63
2023-02-09T16:20:52.906Z,18.15
2023-02-09T16:23:23.905Z,19.48
2023-02-09T16:25:55.107Z,18.55
2023-02-09T16:28:23.620Z,18.75
2023-02-09T16:30:54.551Z,19.60
2023-02-09T16:33:25.272Z,18.88
2023-02-09T16:35:56.624Z,15.43
2023-02-09T16:38:26.820Z,17.10
2023-02-09T16:40:57.400Z,16.85
2023-02-09T16:43:25.930Z,16.55
2023-02-09T16:46:03.232Z,16.23
2023-02-09T16:48:35.088Z,16.20
2023-02-09T16:51:03.766Z,15.93
2023-02-09T16:53:34.622Z,16.60
2023-02-09T16:56:10.225Z,17.75
2023-02-09T16:58:39.683Z,16.08
2023-02-09T17:01:14.270Z,18.00
2023-02-09T17:03:44.397Z,16.30
2023-02-09T17:06:17.460Z,16.80
2023-02-09T17:08:46.208Z,17.33
2023-02-09T17:11:19.187Z,16.20
2023-02-09T17:13:48.460Z,17.65
2023-02-09T17:16:20.068Z,16.67
2023-02-09T17:18:51.598Z,16.48
2023-02-09T17:21:23.444Z,18.52
2023-02-09T17:26:22.512Z,15.52
2023-02-09T17:28:51.222Z,15.85
2023-02-09T17:31:23.440Z,17.23
2023-02-09T17:33:54.104Z,17.75
2023-02-09T17:36:28.062Z,20.55
2023-02-09T17:38:58.735Z,24.17
2023-02-09T17:41:32.639Z,23.00
2023-02-09T17:44:22.445Z,23.00
2023-02-09T17:46:57.773Z,21.23
2023-02-09T17:49:26.552Z,23.90
2023-02-09T17:51:55.071Z,25.20
2023-02-09T17:54:23.516Z,26.13
2023-02-09T17:56:54.096Z,26.15
2023-02-09T17:59:22.648Z,23.90
2023-02-09T18:01:51.306Z,22.75
2023-02-09T18:04:27.434Z,24.55
2023-02-09T18:06:57.764Z,21.92
2023-02-09T18:09:26.257Z,19.40
2023-02-09T18:12:02.254Z,21.20
2023-02-09T18:14:32.602Z,22.33
2023-02-09T18:17:01.443Z,23.27
2023-02-09T18:19:30.006Z,20.67
2023-02-09T18:22:01.076Z,23.27
2023-02-09T18:24:30.741Z,24.80
2023-02-09T18:27:00.905Z,24.42
2023-02-09T18:29:30.384Z,25.35
2023-02-09T18:31:59.212Z,26.42
2023-02-09T18:34:28.495Z,28.80
2023-02-09T18:36:56.944Z,24.00
2023-02-09T18:39:25.342Z,24.45
2023-02-09T18:41:55.338Z,22.17
2023-02-09T18:44:29.498Z,22.42
2023-02-09T18:47:00.527Z,22.23
2023-02-09T18:49:29.466Z,22.55
2023-02-09T18:51:59.492Z,22.42
2023-02-09T18:54:29.050Z,21.65
2023-02-09T18:56:57.606Z,20.92
2023-02-09T18:59:30.665Z,20.65
2023-02-09T19:01:59.654Z,22.20
2023-02-09T19:04:29.125Z,19.63
2023-02-09T19:06:59.351Z,22.85
2023-02-09T19:09:28.805Z,22.30
2023-02-09T19:11:59.780Z,21.95
2023-02-09T19:14:40.734Z,20.58
2023-02-09T19:17:19.768Z,19.70
2023-02-09T19:19:56.252Z,20.92
2023-02-09T19:22:26.388Z,20.90
2023-02-09T19:24:56.938Z,19.70
2023-02-09T19:27:29.808Z,19.98
2023-02-09T19:30:01.241Z,19.52
2023-02-09T19:32:33.943Z,19.65
2023-02-09T19:35:05.611Z,18.90
2023-02-09T19:37:36.840Z,19.20
2023-02-09T19:40:18.358Z,19.65
2023-02-09T19:42:48.975Z,19.70
2023-02-09T19:45:19.111Z,18.63
2023-02-09T19:47:47.432Z,29.48
2023-02-09T19:50:16.863Z,35.80
2023-02-09T19:52:49.577Z,23.50
2023-02-09T19:55:18.453Z,37.17
2023-02-09T19:57:47.036Z,36.17
2023-02-09T20:00:19.256Z,28.80
2023-02-09T20:02:48.540Z,22.60
2023-02-09T20:05:18.868Z,39.95
2023-02-09T20:07:48.971Z,25.63
2023-02-09T20:10:17.708Z,23.27
2023-02-09T20:12:46.779Z,23.00
2023-02-09T20:15:15.197Z,22.63
2023-02-09T20:20:13.736Z,25.30
2023-02-09T20:22:42.200Z,25.63
2023-02-09T20:25:11.630Z,32.22
2023-02-09T20:27:41.090Z,26.23
2023-02-09T20:30:11.152Z,33.92
2023-02-09T20:32:39.668Z,26.83
2023-02-09T20:35:12.256Z,23.25
2023-02-09T20:37:40.628Z,22.13
2023-02-09T20:40:11.458Z,22.13
2023-02-09T20:42:57.826Z,20.13
2023-02-09T20:45:44.014Z,18.92
2023-02-09T20:48:14.071Z,18.13
2023-02-09T20:50:45.379Z,19.48
2023-02-09T20:53:14.318Z,18.05
2023-02-09T20:55:43.508Z,16.48
2023-02-09T20:58:13.709Z,19.90
2023-02-09T21:00:42.558Z,18.48
2023-02-09T21:03:11.304Z,19.25
2023-02-09T21:05:39.909Z,19.00
2023-02-09T21:08:09.905Z,19.48
2023-02-09T21:10:39.079Z,17.57
2023-02-09T21:13:10.688Z,18.70
2023-02-09T21:15:43.225Z,21.10
2023-02-09T21:18:11.665Z,17.85
2023-02-09T21:20:40.188Z,17.77
2023-02-09T21:23:09.935Z,17.08
2023-02-09T21:25:38.073Z,17.35
2023-02-09T21:28:07.150Z,15.65
2023-02-09T21:30:35.523Z,18.67
2023-02-09T21:33:03.928Z,18.08
2023-02-09T21:35:32.613Z,16.80
2023-02-09T21:38:01.014Z,17.23
2023-02-09T21:40:30.736Z,17.73
2023-02-09T21:42:59.290Z,16.73
2023-02-09T21:45:27.845Z,16.50
2023-02-09T21:47:56.103Z,17.50
2023-02-09T21:50:24.551Z,15.55
2023-02-09T21:52:54.757Z,16.23
2023-02-09T21:55:23.082Z,17.63
2023-02-09T21:57:52.755Z,16.30
2023-02-09T22:00:21.743Z,15.63
2023-02-09T22:02:53.398Z,15.00
2023-02-09T22:05:22.136Z,14.95
2023-02-09T22:07:50.986Z,14.77
2023-02-09T22:10:19.496Z,15.25
2023-02-09T22:12:48.110Z,15.25
2023-02-09T22:15:19.292Z,14.18
2023-02-09T22:17:48.427Z,13.60
2023-02-09T22:20:16.879Z,14.35
2023-02-09T22:22:46.280Z,13.65
2023-02-09T22:25:14.482Z,14.02
2023-02-09T22:27:43.348Z,12.63
2023-02-09T22:30:12.912Z,12.30
2023-02-09T22:32:43.383Z,12.98
2023-02-09T22:35:11.765Z,23.17
2023-02-09T22:37:40.226Z,22.80
2023-02-09T22:40:09.431Z,16.92
2023-02-09T22:42:37.786Z,13.70
2023-02-09T22:45:07.496Z,13.02
2023-02-09T22:47:36.236Z,14.75
2023-02-09T22:50:06.690Z,13.27
2023-02-09T22:52:35.278Z,11.98
2023-02-09T22:55:03.678Z,10.45
2023-02-09T22:57:32.297Z,12.82
2023-02-09T23:00:00.580Z,13.32
2023-02-09T23:02:29.326Z,10.38
2023-02-09T23:04:57.487Z,11.13
2023-02-09T23:07:27.666Z,9.13
2023-02-09T23:09:55.947Z,10.00
2023-02-09T23:12:24.424Z,10.88
2023-02-09T23:14:54.740Z,10.05
2023-02-09T23:17:23.179Z,10.15
2023-02-09T23:19:51.479Z,9.70
2023-02-09T23:22:20.477Z,10.25
2023-02-09T23:24:50.262Z,10.20
2023-02-09T23:27:19.464Z,10.57
2023-02-09T23:29:48.050Z,10.50
2023-02-09T23:32:17.072Z,10.15
2023-02-09T23:34:45.881Z,10.90
2023-02-09T23:37:19.171Z,10.43
2023-02-09T23:40:04.673Z,11.55
2023-02-09T23:42:33.507Z,13.45
2023-02-09T23:45:02.341Z,12.93
2023-02-09T23:47:30.538Z,11.00
2023-02-09T23:49:58.891Z,12.90
2023-02-09T23:52:27.537Z,19.63
2023-02-09T23:54:56.255Z,12.82
2023-02-09T23:57:26.464Z,11.75
2023-02-09T23:59:54.810Z,11.55
